Time;durP1;ratioP1;P1;durP2;ratioP2;P2;SDS_P1;SDS_P2;PMS_P1;PMS_P2;Temp;Humidity;BMP_temperature;BMP_pressure;BME280_temperature;BME280_humidity;BME280_pressure;Samples;Min_cycle;Max_cycle;Signal;HPM_P1;HPM_P2
2021/12/22 00:00:55;;;;;;;3.67;3.47;;;19.40;39.30;;;;;;5068777;28;20718;-63
2021/12/22 00:03:22;;;;;;;3.80;3.60;;;19.40;39.30;;;;;;5069891;28;20459;-60
2021/12/22 00:05:50;;;;;;;3.67;3.23;;;19.40;39.20;;;;;;5070942;28;20214;-60
2021/12/22 00:08:17;;;;;;;5.20;3.40;;;19.40;39.40;;;;;;5070940;28;20542;-62
2021/12/22 00:10:45;;;;;;;3.90;3.70;;;19.40;39.30;;;;;;5069451;28;20455;-60
2021/12/22 00:13:11;;;;;;;4.17;3.97;;;19.40;39.30;;;;;;5070949;28;20904;-61
2021/12/22 00:15:36;;;;;;;4.00;3.80;;;19.40;39.30;;;;;;5070833;28;20499;-60
2021/12/22 00:18:03;;;;;;;4.07;3.67;;;19.40;39.20;;;;;;5071135;28;20451;-60
2021/12/22 00:20:28;;;;;;;3.53;3.33;;;19.40;39.20;;;;;;5068180;28;20261;-62
2021/12/22 00:22:54;;;;;;;3.57;3.37;;;19.40;39.30;;;;;;5071229;28;20446;-60
2021/12/22 00:25:24;;;;;;;3.60;3.30;;;19.40;39.30;;;;;;5070968;28;20218;-62
2021/12/22 00:27:50;;;;;;;3.37;3.17;;;19.40;39.30;;;;;;5070780;28;20213;-62
2021/12/22 00:30:16;;;;;;;3.83;3.63;;;19.40;39.30;;;;;;5070969;28;20983;-60
2021/12/22 00:32:49;;;;;;;3.30;3.10;;;19.40;39.20;;;;;;5067926;28;20580;-60
2021/12/22 00:35:15;;;;;;;3.50;3.30;;;19.40;39.30;;;;;;5070355;28;20296;-61
2021/12/22 00:37:40;;;;;;;3.60;3.40;;;19.40;39.30;;;;;;5067712;28;20585;-61
2021/12/22 00:40:07;;;;;;;3.17;2.97;;;19.40;39.20;;;;;;5070070;28;20234;-61
2021/12/22 00:42:32;;;;;;;3.13;2.93;;;19.40;39.20;;;;;;5069995;28;20221;-60
2021/12/22 00:44:58;;;;;;;3.50;3.30;;;19.40;39.30;;;;;;5067425;28;20450;-60
2021/12/22 00:47:26;;;;;;;3.70;3.50;;;19.40;39.20;;;;;;5068129;28;20219;-61
2021/12/22 00:49:53;;;;;;;3.40;3.20;;;19.40;39.20;;;;;;5065807;28;20226;-61
2021/12/22 00:52:19;;;;;;;3.13;2.93;;;19.40;39.20;;;;;;5068443;28;20806;-61
2021/12/22 00:54:44;;;;;;;3.20;3.00;;;19.40;39.20;;;;;;5069489;28;20939;-62
2021/12/22 00:57:11;;;;;;;2.90;2.73;;;19.40;39.20;;;;;;5068405;28;20301;-63
2021/12/22 00:59:37;;;;;;;3.47;3.27;;;19.40;39.20;;;;;;5068284;28;20237;-64
2021/12/22 01:02:06;;;;;;;3.53;3.30;;;19.40;39.20;;;;;;5067993;28;20533;-61
2021/12/22 01:04:32;;;;;;;3.10;2.90;;;19.40;39.10;;;;;;5069161;28;20462;-62
2021/12/22 01:06:57;;;;;;;3.63;3.43;;;19.40;39.20;;;;;;5070428;28;20438;-62
2021/12/22 01:09:23;;;;;;;3.60;3.40;;;19.30;39.10;;;;;;5069399;28;20592;-61
2021/12/22 01:11:50;;;;;;;3.10;2.90;;;19.30;39.10;;;;;;5068921;28;20304;-61
2021/12/22 01:14:16;;;;;;;3.00;2.80;;;19.30;39.00;;;;;;5069358;28;20221;-62
2021/12/22 01:16:47;;;;;;;3.00;2.80;;;19.30;39.10;;;;;;5070009;28;20504;-61
2021/12/22 01:19:17;;;;;;;3.03;2.83;;;19.30;39.00;;;;;;5068095;28;20256;-64
2021/12/22 01:21:48;;;;;;;2.70;2.50;;;19.30;39.10;;;;;;5069109;28;20446;-61
2021/12/22 01:24:28;;;;;;;3.00;2.80;;;19.30;39.10;;;;;;5068984;28;20439;-62
2021/12/22 01:27:03;;;;;;;3.17;2.97;;;19.30;39.90;;;;;;5064574;28;20451;-61
2021/12/22 01:29:29;;;;;;;3.00;2.80;;;19.30;39.90;;;;;;5067694;28;21005;-63
2021/12/22 01:31:57;;;;;;;2.70;2.60;;;19.30;39.00;;;;;;5068370;28;20447;-65
2021/12/22 01:34:23;;;;;;;2.53;2.33;;;19.30;39.00;;;;;;5068582;28;20454;-61
2021/12/22 01:36:49;;;;;;;3.27;3.07;;;19.30;39.00;;;;;;5068045;28;20453;-61
2021/12/22 01:39:14;;;;;;;3.10;2.90;;;19.30;39.10;;;;;;5067619;28;20451;-61
2021/12/22 01:41:40;;;;;;;3.30;3.10;;;19.30;39.10;;;;;;5069887;28;20710;-62
2021/12/22 01:44:08;;;;;;;3.07;2.87;;;19.30;39.00;;;;;;5067823;28;20222;-63
2021/12/22 01:49:40;;;;;;;3.13;2.93;;;19.30;39.10;;;;;;5068990;28;20474;-63
2021/12/22 01:52:07;;;;;;;2.80;2.70;;;19.30;39.10;;;;;;5069769;28;20777;-61
2021/12/22 01:54:40;;;;;;;3.17;2.97;;;19.30;39.10;;;;;;5067839;28;20973;-60
2021/12/22 01:57:11;;;;;;;3.07;2.87;;;19.30;39.10;;;;;;5068070;28;20427;-61
2021/12/22 01:59:41;;;;;;;2.20;2.10;;;19.30;39.10;;;;;;5067796;28;20854;-65
2021/12/22 02:02:08;;;;;;;3.20;3.00;;;19.30;39.10;;;;;;5067187;28;20455;-63
2021/12/22 02:04:35;;;;;;;2.77;2.57;;;19.30;39.10;;;;;;5068726;28;20446;-61
2021/12/22 02:07:00;;;;;;;2.37;2.27;;;19.30;39.00;;;;;;5067100;28;21020;-61
2021/12/22 02:09:52;;;;;;;2.70;2.50;;;19.30;39.10;;;;;;5068038;28;20458;-61
2021/12/22 02:12:18;;;;;;;3.10;2.80;;;19.30;39.00;;;;;;5065940;28;20276;-61
2021/12/22 02:14:45;;;;;;;2.53;2.43;;;19.30;39.80;;;;;;5068992;28;20829;-60
2021/12/22 02:17:12;;;;;;;2.57;2.47;;;19.30;39.10;;;;;;5067450;28;20259;-61
2021/12/22 02:19:46;;;;;;;2.50;2.30;;;19.30;39.00;;;;;;5069015;28;20447;-61
2021/12/22 02:22:14;;;;;;;2.67;2.57;;;19.30;39.00;;;;;;5063807;28;20443;-61
2021/12/22 02:24:53;;;;;;;2.50;2.37;;;19.30;38.90;;;;;;5067421;28;20446;-62
2021/12/22 02:27:45;;;;;;;2.77;2.57;;;19.30;38.90;;;;;;5069030;28;20450;-62
2021/12/22 02:30:16;;;;;;;3.00;2.80;;;19.30;39.00;;;;;;5068025;28;20438;-63
2021/12/22 02:35:24;;;;;;;2.47;2.27;;;19.30;39.00;;;;;;5066234;28;20430;-62
2021/12/22 02:37:50;;;;;;;2.20;2.10;;;19.30;38.90;;;;;;5065297;28;20438;-63
2021/12/22 02:40:24;;;;;;;2.30;2.20;;;19.30;38.90;;;;;;5067304;28;20516;-60
2021/12/22 02:42:53;;;;;;;2.90;2.70;;;19.30;39.00;;;;;;5066014;28;20292;-62
2021/12/22 02:45:20;;;;;;;2.70;2.50;;;19.30;38.90;;;;;;5065413;28;20443;-61
2021/12/22 02:47:46;;;;;;;2.57;2.27;;;19.30;38.90;;;;;;5068463;28;20439;-61
2021/12/22 02:50:15;;;;;;;2.53;2.43;;;19.30;39.00;;;;;;5068466;28;20453;-61
2021/12/22 02:52:59;;;;;;;2.80;2.60;;;19.30;39.00;;;;;;5067095;28;20438;-60
2021/12/22 02:55:31;;;;;;;2.93;2.73;;;19.30;38.90;;;;;;5068500;28;20450;-61
2021/12/22 02:58:00;;;;;;;3.07;2.43;;;19.30;38.90;;;;;;5066511;28;20523;-61
2021/12/22 03:00:45;;;;;;;2.20;2.10;;;19.30;38.90;;;;;;5068479;28;20469;-62
2021/12/22 03:03:34;;;;;;;2.77;2.57;;;19.30;38.90;;;;;;5064715;28;20446;-61
2021/12/22 03:06:04;;;;;;;2.63;2.50;;;19.30;38.80;;;;;;5065505;28;20484;-60
2021/12/22 03:08:30;;;;;;;2.50;2.40;;;19.30;39.60;;;;;;5067644;28;20802;-61
2021/12/22 03:10:56;;;;;;;2.70;2.50;;;19.30;38.90;;;;;;5067989;28;20443;-62
2021/12/22 03:13:23;;;;;;;2.20;2.10;;;19.30;38.90;;;;;;5064833;28;20210;-61
2021/12/22 03:15:49;;;;;;;4.00;2.70;;;19.30;38.90;;;;;;5066958;28;20252;-62
2021/12/22 03:18:16;;;;;;;2.77;2.57;;;19.30;38.80;;;;;;5067450;28;20462;-60
2021/12/22 03:20:49;;;;;;;2.40;2.30;;;19.30;38.80;;;;;;5067081;28;20470;-60
2021/12/22 03:23:15;;;;;;;2.40;2.30;;;19.30;38.80;;;;;;5066484;28;20446;-60
2021/12/22 03:25:41;;;;;;;2.17;2.07;;;19.30;38.80;;;;;;5070206;28;20447;-61
2021/12/22 03:28:06;;;;;;;2.67;2.50;;;19.30;38.70;;;;;;5069305;28;20210;-61
2021/12/22 03:30:33;;;;;;;2.67;2.50;;;19.30;38.70;;;;;;5069952;28;20226;-60
2021/12/22 03:32:58;;;;;;;2.20;2.10;;;19.30;38.70;;;;;;5070810;28;20312;-60
2021/12/22 03:35:24;;;;;;;2.67;2.57;;;19.30;38.70;;;;;;5069005;28;20538;-60
2021/12/22 03:37:54;;;;;;;2.40;2.20;;;19.30;38.80;;;;;;5070818;28;20213;-61
2021/12/22 03:40:21;;;;;;;2.67;2.47;;;19.30;38.70;;;;;;5070878;28;20286;-60
2021/12/22 03:42:48;;;;;;;2.73;2.57;;;19.30;38.70;;;;;;5072501;28;20533;-60
2021/12/22 03:45:14;;;;;;;4.63;1.93;;;19.30;38.60;;;;;;5071368;28;20446;-60
2021/12/22 03:47:40;;;;;;;3.20;2.27;;;19.30;38.60;;;;;;5067242;28;20470;-63
2021/12/22 03:50:07;;;;;;;2.43;2.33;;;19.30;38.70;;;;;;5072132;28;20623;-63
2021/12/22 03:52:33;;;;;;;2.10;2.00;;;19.30;38.60;;;;;;5069300;28;20308;-60
2021/12/22 03:54:59;;;;;;;2.13;2.03;;;19.30;38.60;;;;;;5071276;28;20533;-60
2021/12/22 03:57:26;;;;;;;2.80;2.57;;;19.30;38.60;;;;;;5071826;28;20221;-63
2021/12/22 03:59:52;;;;;;;2.43;2.33;;;19.30;38.60;;;;;;5070631;28;20279;-61
2021/12/22 04:02:20;;;;;;;2.30;2.10;;;19.30;38.60;;;;;;5070610;28;20522;-60
2021/12/22 04:04:48;;;;;;;2.63;2.53;;;19.30;38.60;;;;;;5070468;28;20225;-62
2021/12/22 04:07:14;;;;;;;2.70;2.60;;;19.30;38.70;;;;;;5069845;28;20474;-62
2021/12/22 04:09:40;;;;;;;2.37;2.27;;;19.30;38.60;;;;;;5067701;28;20441;-66
2021/12/22 04:12:06;;;;;;;2.37;2.20;;;19.30;38.60;;;;;;5067624;28;20432;-60
2021/12/22 04:14:31;;;;;;;2.30;2.10;;;19.30;38.60;;;;;;5070207;28;20750;-64
2021/12/22 04:16:57;;;;;;;2.20;2.10;;;19.30;38.60;;;;;;5071268;28;20943;-60
2021/12/22 04:19:22;;;;;;;2.40;2.27;;;19.30;38.60;;;;;;5070991;28;20248;-61
2021/12/22 04:21:49;;;;;;;1.70;1.60;;;19.30;38.60;;;;;;5068427;28;20218;-60
2021/12/22 04:24:16;;;;;;;2.40;2.20;;;19.30;38.60;;;;;;5069071;28;20301;-63
2021/12/22 04:26:42;;;;;;;2.03;1.93;;;19.30;38.60;;;;;;5068840;28;20982;-61
2021/12/22 04:29:10;;;;;;;2.20;2.10;;;19.30;38.60;;;;;;5070947;28;20435;-63
2021/12/22 04:31:35;;;;;;;2.10;2.00;;;19.30;38.60;;;;;;5069502;28;20225;-61
2021/12/22 04:34:04;;;;;;;2.57;2.37;;;19.30;38.60;;;;;;5069588;28;20937;-61
2021/12/22 04:36:30;;;;;;;2.47;2.37;;;19.30;38.60;;;;;;5068313;28;20297;-63
2021/12/22 04:38:57;;;;;;;2.27;2.00;;;19.30;38.60;;;;;;5068805;28;20534;-60
2021/12/22 04:41:22;;;;;;;2.50;2.30;;;19.30;38.60;;;;;;5070666;28;20268;-61
2021/12/22 04:43:48;;;;;;;2.57;2.40;;;19.30;38.60;;;;;;5069478;28;20439;-60
2021/12/22 04:46:13;;;;;;;2.20;2.10;;;19.30;38.60;;;;;;5069533;28;20218;-60
2021/12/22 04:48:39;;;;;;;2.13;2.03;;;19.30;38.60;;;;;;5070846;28;20279;-61
2021/12/22 04:51:14;;;;;;;2.47;2.27;;;19.30;38.60;;;;;;5071001;28;20634;-63
2021/12/22 04:53:50;;;;;;;2.60;2.40;;;19.30;38.60;;;;;;5066657;28;20279;-61
2021/12/22 04:56:16;;;;;;;2.40;2.20;;;19.30;38.60;;;;;;5069037;28;20791;-61
2021/12/22 04:58:41;;;;;;;2.27;2.07;;;19.30;38.60;;;;;;5069887;28;20962;-60
2021/12/22 05:01:07;;;;;;;2.20;2.00;;;19.30;38.60;;;;;;5066466;28;20233;-63
2021/12/22 05:03:33;;;;;;;2.07;1.97;;;19.30;38.60;;;;;;5068974;28;20246;-61
2021/12/22 05:05:58;;;;;;;2.20;2.10;;;19.30;38.60;;;;;;5069567;28;20248;-62
2021/12/22 05:08:24;;;;;;;1.87;1.77;;;19.30;38.60;;;;;;5069181;28;20278;-61
2021/12/22 05:10:49;;;;;;;2.40;2.30;;;19.30;38.60;;;;;;5070191;28;20221;-61
2021/12/22 05:13:15;;;;;;;2.00;1.90;;;19.30;38.60;;;;;;5068779;28;20214;-61
2021/12/22 05:15:40;;;;;;;2.27;2.07;;;19.30;38.60;;;;;;5070065;28;20636;-62
2021/12/22 05:20:38;;;;;;;2.10;2.00;;;19.30;38.60;;;;;;5065461;28;20229;-61
2021/12/22 05:23:04;;;;;;;1.77;1.67;;;19.30;38.60;;;;;;5069895;28;20507;-61
2021/12/22 05:25:29;;;;;;;1.93;1.83;;;19.30;38.60;;;;;;5069806;28;20669;-62
2021/12/22 05:27:55;;;;;;;2.37;2.20;;;19.30;38.60;;;;;;5068427;28;20681;-61
2021/12/22 05:30:20;;;;;;;2.10;2.00;;;19.30;38.60;;;;;;5068917;28;20229;-61
2021/12/22 05:32:46;;;;;;;2.37;2.23;;;19.40;38.70;;;;;;5069164;28;20284;-61
2021/12/22 05:35:12;;;;;;;1.90;1.80;;;19.30;38.60;;;;;;5066414;28;20241;-61
2021/12/22 05:37:39;;;;;;;2.07;1.97;;;19.30;38.60;;;;;;5069737;28;20919;-62
2021/12/22 05:40:07;;;;;;;2.10;2.00;;;19.40;38.70;;;;;;5067760;28;20241;-61
2021/12/22 05:42:33;;;;;;;2.50;2.30;;;19.40;38.70;;;;;;5068223;28;20478;-61
2021/12/22 05:44:58;;;;;;;2.17;2.07;;;19.40;38.70;;;;;;5069806;28;20959;-61
2021/12/22 05:47:24;;;;;;;2.37;2.27;;;19.40;38.70;;;;;;5068627;28;20229;-62
2021/12/22 05:49:50;;;;;;;2.20;2.10;;;19.30;38.60;;;;;;5068088;28;20214;-64
2021/12/22 05:52:16;;;;;;;2.80;2.60;;;19.40;38.70;;;;;;5068688;28;20222;-63
2021/12/22 05:54:42;;;;;;;2.43;2.33;;;19.40;38.70;;;;;;5068542;28;20435;-62
2021/12/22 05:57:08;;;;;;;2.17;2.07;;;19.40;38.70;;;;;;5069862;28;20316;-61
2021/12/22 05:59:33;;;;;;;2.20;2.10;;;19.40;38.70;;;;;;5066716;28;20237;-61
2021/12/22 06:01:59;;;;;;;2.73;2.30;;;19.40;38.70;;;;;;5068941;28;20225;-61
2021/12/22 06:04:25;;;;;;;1.97;1.87;;;19.40;38.70;;;;;;5068724;28;20571;-61
2021/12/22 06:06:50;;;;;;;2.20;2.10;;;19.40;38.70;;;;;;5053619;28;20304;-62
2021/12/22 06:09:16;;;;;;;2.13;1.93;;;19.40;38.70;;;;;;5070934;28;20218;-64
2021/12/22 06:11:41;;;;;;;2.57;2.40;;;19.40;38.70;;;;;;5069861;28;20279;-61
2021/12/22 06:14:07;;;;;;;2.13;2.03;;;19.40;38.70;;;;;;5067360;28;20239;-62
2021/12/22 06:16:32;;;;;;;2.23;2.13;;;19.40;38.70;;;;;;5067123;28;20750;-63
2021/12/22 06:19:03;;;;;;;2.10;2.00;;;19.40;38.70;;;;;;5067757;28;20235;-61
2021/12/22 06:21:30;;;;;;;1.90;1.80;;;19.40;39.40;;;;;;5068096;28;20299;-61
2021/12/22 06:23:56;;;;;;;1.93;1.83;;;19.40;38.70;;;;;;5068566;28;20459;-61
2021/12/22 06:26:21;;;;;;;3.33;2.20;;;19.40;38.70;;;;;;5066762;28;20850;-63
2021/12/22 06:28:47;;;;;;;3.93;2.20;;;19.40;38.70;;;;;;5067068;28;20581;-62
2021/12/22 06:31:13;;;;;;;2.30;2.20;;;19.40;38.70;;;;;;5066274;28;20218;-64
2021/12/22 06:33:39;;;;;;;2.20;2.10;;;19.40;38.70;;;;;;5069320;28;20300;-61
2021/12/22 06:36:05;;;;;;;1.93;1.83;;;19.40;38.70;;;;;;5067693;28;20660;-61
2021/12/22 06:38:31;;;;;;;2.43;1.70;;;19.40;38.70;;;;;;5067285;28;20499;-63
2021/12/22 06:40:56;;;;;;;1.87;1.77;;;19.40;38.70;;;;;;5064536;28;21093;-61
2021/12/22 06:43:22;;;;;;;1.80;1.70;;;19.40;38.70;;;;;;5068276;28;20213;-63
2021/12/22 06:45:48;;;;;;;2.57;2.37;;;19.50;38.80;;;;;;5068107;28;20218;-61
2021/12/22 06:48:13;;;;;;;2.27;2.17;;;19.40;38.70;;;;;;5068172;28;20450;-61
2021/12/22 06:50:39;;;;;;;1.90;1.80;;;19.50;38.80;;;;;;5067347;28;20346;-62
2021/12/22 06:53:05;;;;;;;2.07;1.97;;;19.40;38.70;;;;;;5068342;28;20222;-62
2021/12/22 06:55:31;;;;;;;2.00;1.90;;;19.40;38.70;;;;;;5066637;28;20221;-61
2021/12/22 06:57:56;;;;;;;2.00;1.90;;;19.40;38.70;;;;;;5067289;28;20214;-61
2021/12/22 07:00:22;;;;;;;1.90;1.80;;;19.40;38.70;;;;;;5068177;28;20241;-66
2021/12/22 07:02:48;;;;;;;2.23;2.13;;;19.40;38.70;;;;;;5071465;28;20259;-60
2021/12/22 07:05:14;;;;;;;2.10;2.00;;;19.40;38.70;;;;;;5072284;28;20454;-61
2021/12/22 07:07:40;;;;;;;3.70;3.30;;;19.40;38.70;;;;;;5070115;28;20650;-61
2021/12/22 07:10:10;;;;;;;2.67;2.50;;;19.40;38.70;;;;;;5070820;28;20229;-61
2021/12/22 07:12:36;;;;;;;2.10;2.00;;;19.40;38.70;;;;;;5072199;28;20447;-62
2021/12/22 07:15:04;;;;;;;2.70;2.50;;;19.40;38.70;;;;;;5071707;28;20451;-63
2021/12/22 07:17:29;;;;;;;2.03;1.60;;;19.40;38.60;;;;;;5071738;28;20478;-61
2021/12/22 07:19:55;;;;;;;2.37;2.17;;;19.40;38.70;;;;;;5069908;28;20990;-61
2021/12/22 07:22:21;;;;;;;1.90;1.80;;;19.40;38.60;;;;;;5070702;28;20256;-60
2021/12/22 07:24:46;;;;;;;2.07;1.97;;;19.40;38.60;;;;;;5071971;28;20219;-64
2021/12/22 07:27:12;;;;;;;2.30;2.10;;;19.50;38.70;;;;;;5070878;28;20253;-61
2021/12/22 07:29:38;;;;;;;2.47;2.27;;;19.50;38.70;;;;;;5070894;28;20218;-64
2021/12/22 07:32:04;;;;;;;2.50;2.30;;;19.50;38.70;;;;;;5071677;28;20260;-64
2021/12/22 07:35:03;;;;;;;2.90;2.70;;;19.50;38.70;;;;;;5069738;28;20584;-61
2021/12/22 07:37:37;;;;;;;3.83;3.43;;;19.50;38.60;;;;;;5071364;28;20533;-61
2021/12/22 07:40:04;;;;;;;3.63;3.40;;;19.50;38.70;;;;;;5071192;28;20520;-61
2021/12/22 07:42:30;;;;;;;7.60;3.80;;;19.50;38.60;;;;;;5071842;28;20466;-64
2021/12/22 07:44:55;;;;;;;4.17;3.83;;;19.50;38.70;;;;;;5069191;28;20447;-62
2021/12/22 07:47:21;;;;;;;4.40;4.10;;;19.50;38.60;;;;;;5070096;28;20884;-61
2021/12/22 07:49:47;;;;;;;6.73;4.20;;;19.50;38.60;;;;;;5071215;28;20236;-61
2021/12/22 07:52:12;;;;;;;4.57;4.20;;;19.50;38.70;;;;;;5071965;28;20245;-61
2021/12/22 07:54:39;;;;;;;4.93;4.40;;;19.50;38.50;;;;;;5069823;28;20347;-61
2021/12/22 07:57:06;;;;;;;9.30;4.63;;;19.40;38.40;;;;;;5071032;28;20682;-61
2021/12/22 07:59:31;;;;;;;8.20;5.47;;;19.50;38.60;;;;;;5068726;28;20471;-60
2021/12/22 08:01:58;;;;;;;4.60;4.20;;;19.40;38.50;;;;;;5067621;28;21218;-61
2021/12/22 08:04:24;;;;;;;4.67;4.17;;;19.50;38.50;;;;;;5071505;28;20245;-62
2021/12/22 08:06:50;;;;;;;8.57;5.07;;;19.50;38.60;;;;;;5069505;28;20444;-63
2021/12/22 08:09:16;;;;;;;5.97;4.77;;;19.40;38.40;;;;;;5070470;28;20442;-61
2021/12/22 08:11:41;;;;;;;5.60;4.50;;;19.40;38.50;;;;;;5070671;28;20225;-62
2021/12/22 08:14:07;;;;;;;6.20;5.23;;;19.40;38.40;;;;;;5069591;28;20655;-60
2021/12/22 08:16:32;;;;;;;5.40;4.90;;;19.50;38.60;;;;;;5068531;28;20229;-60
2021/12/22 08:18:58;;;;;;;5.63;5.13;;;19.40;38.40;;;;;;5068530;28;20213;-61
2021/12/22 08:21:24;;;;;;;6.20;5.00;;;19.40;38.40;;;;;;5071118;28;20210;-62
2021/12/22 08:23:49;;;;;;;5.40;4.30;;;19.40;39.20;;;;;;5069299;28;20263;-62
2021/12/22 08:26:15;;;;;;;5.00;4.60;;;19.40;38.40;;;;;;5071280;28;20271;-63
2021/12/22 08:28:40;;;;;;;4.93;4.53;;;19.40;38.40;;;;;;5071652;28;20309;-62
2021/12/22 08:31:06;;;;;;;5.60;4.63;;;19.40;38.30;;;;;;5068461;28;20218;-61
2021/12/22 08:33:38;;;;;;;6.13;5.30;;;19.40;38.30;;;;;;5068466;28;20222;-60
2021/12/22 08:38:50;;;;;;;4.90;4.40;;;19.40;38.20;;;;;;5071083;28;20457;-61
2021/12/22 08:41:28;;;;;;;4.97;4.50;;;19.40;38.20;;;;;;5069410;28;20463;-60
2021/12/22 08:43:55;;;;;;;4.43;4.03;;;19.40;38.20;;;;;;5069665;28;20466;-64
2021/12/22 08:46:22;;;;;;;4.53;4.03;;;19.40;38.20;;;;;;5070463;28;20491;-61
2021/12/22 08:48:48;;;;;;;5.67;5.00;;;19.40;38.20;;;;;;5069878;28;20973;-60
2021/12/22 08:51:14;;;;;;;5.10;4.70;;;19.40;38.20;;;;;;5071083;28;20425;-61
2021/12/22 08:53:40;;;;;;;4.80;4.30;;;19.40;38.20;;;;;;5068244;28;20213;-60
2021/12/22 08:56:06;;;;;;;4.80;4.27;;;19.40;38.20;;;;;;5068206;28;20418;-61
2021/12/22 08:58:32;;;;;;;4.60;4.20;;;19.40;38.20;;;;;;5067858;28;20512;-63
2021/12/22 09:00:58;;;;;;;4.73;4.33;;;19.40;38.20;;;;;;5069711;28;20441;-60
2021/12/22 09:03:24;;;;;;;4.13;3.83;;;19.40;38.10;;;;;;5069218;28;20245;-61
2021/12/22 09:05:49;;;;;;;5.20;3.97;;;19.40;38.10;;;;;;5069857;28;20621;-61
2021/12/22 09:08:15;;;;;;;4.10;3.80;;;19.40;38.10;;;;;;5069564;28;20222;-61
2021/12/22 09:10:41;;;;;;;3.90;3.50;;;19.40;38.10;;;;;;5068375;28;20229;-63
2021/12/22 09:13:06;;;;;;;4.30;4.00;;;19.40;38.10;;;;;;5069854;28;20225;-60
2021/12/22 09:15:32;;;;;;;4.80;4.33;;;19.40;38.00;;;;;;5069904;28;20221;-62
2021/12/22 09:17:58;;;;;;;3.70;3.40;;;19.40;37.90;;;;;;5068504;28;20260;-61
2021/12/22 09:20:24;;;;;;;4.90;4.40;;;19.40;37.90;;;;;;5068858;28;20229;-65
2021/12/22 09:22:49;;;;;;;3.50;3.30;;;19.40;38.00;;;;;;5068534;28;20214;-60
2021/12/22 09:25:15;;;;;;;3.60;3.30;;;19.40;38.00;;;;;;5069850;28;20461;-60
2021/12/22 09:27:41;;;;;;;4.30;3.80;;;19.40;38.00;;;;;;5068869;28;20682;-60
2021/12/22 09:30:08;;;;;;;5.40;4.30;;;19.40;38.00;;;;;;5069786;28;20335;-60
2021/12/22 09:32:34;;;;;;;4.13;3.83;;;19.50;38.00;;;;;;5070033;28;20237;-60
2021/12/22 09:34:59;;;;;;;4.43;4.10;;;19.50;38.80;;;;;;5069450;28;20455;-60
2021/12/22 09:37:25;;;;;;;3.97;3.63;;;19.40;38.00;;;;;;5069283;28;20222;-61
2021/12/22 09:39:51;;;;;;;3.90;3.50;;;19.40;38.00;;;;;;5065273;28;20241;-60
2021/12/22 09:42:16;;;;;;;4.20;3.90;;;19.40;38.00;;;;;;5069054;28;20260;-63
2021/12/22 09:44:45;;;;;;;4.13;3.83;;;19.40;38.00;;;;;;5068875;28;20228;-60
2021/12/22 09:47:13;;;;;;;4.47;4.07;;;19.40;38.00;;;;;;5065698;28;20210;-61
2021/12/22 09:52:17;;;;;;;3.47;3.27;;;19.50;38.00;;;;;;5067999;28;20794;-60
2021/12/22 09:54:43;;;;;;;3.37;3.07;;;19.50;37.90;;;;;;5067522;28;20442;-61
2021/12/22 09:57:08;;;;;;;4.17;3.87;;;19.50;37.90;;;;;;5067679;28;20765;-65
2021/12/22 09:59:35;;;;;;;4.23;3.60;;;19.50;37.90;;;;;;5067503;28;20257;-60
2021/12/22 10:02:00;;;;;;;4.33;3.50;;;19.50;37.90;;;;;;5066055;28;20221;-60
2021/12/22 10:04:27;;;;;;;4.00;3.70;;;19.50;37.90;;;;;;5068156;28;20498;-60
2021/12/22 10:06:54;;;;;;;5.10;3.57;;;19.50;37.90;;;;;;5066829;28;20951;-65
2021/12/22 10:09:24;;;;;;;3.90;3.53;;;19.50;38.00;;;;;;5068764;28;20425;-62
2021/12/22 10:11:50;;;;;;;3.30;3.10;;;19.50;37.90;;;;;;5067337;28;20458;-64
2021/12/22 10:14:25;;;;;;;3.83;3.53;;;19.50;37.90;;;;;;5068486;28;20443;-62
2021/12/22 10:16:54;;;;;;;3.57;3.30;;;19.50;37.90;;;;;;5067423;28;20960;-60
2021/12/22 10:19:23;;;;;;;3.40;3.10;;;19.50;38.00;;;;;;5066964;28;20455;-61
2021/12/22 10:22:01;;;;;;;3.30;3.10;;;19.50;37.90;;;;;;5068914;28;20468;-60
2021/12/22 10:24:41;;;;;;;5.80;3.23;;;19.50;37.90;;;;;;5068099;28;20470;-60
2021/12/22 10:27:10;;;;;;;3.10;2.90;;;19.50;38.00;;;;;;5066211;28;20909;-61
2021/12/22 10:29:36;;;;;;;3.93;3.63;;;19.50;38.00;;;;;;5068341;28;20498;-60
2021/12/22 10:32:08;;;;;;;3.20;3.00;;;19.50;38.00;;;;;;5067784;28;20476;-60
2021/12/22 10:34:33;;;;;;;2.80;2.60;;;19.50;37.90;;;;;;5067756;28;20226;-61
2021/12/22 10:36:59;;;;;;;2.70;2.50;;;19.50;38.00;;;;;;5068211;28;20450;-60
2021/12/22 10:39:31;;;;;;;3.17;2.97;;;19.50;38.00;;;;;;5069310;28;20238;-62
2021/12/22 10:42:09;;;;;;;3.43;3.13;;;19.50;38.80;;;;;;5067825;28;20228;-62
2021/12/22 10:44:40;;;;;;;3.33;3.03;;;19.50;37.90;;;;;;5067348;28;20465;-60
2021/12/22 10:47:14;;;;;;;3.10;2.90;;;19.50;38.00;;;;;;5062259;28;20446;-60
2021/12/22 10:49:40;;;;;;;3.20;3.00;;;19.50;37.90;;;;;;5067359;28;20975;-60
2021/12/22 10:52:06;;;;;;;3.23;2.93;;;19.50;38.00;;;;;;5068377;28;20435;-60
2021/12/22 10:54:33;;;;;;;3.43;3.13;;;19.50;38.00;;;;;;5066547;28;20226;-60
2021/12/22 10:57:01;;;;;;;2.90;2.70;;;19.40;37.90;;;;;;5067295;28;20461;-60
2021/12/22 10:59:26;;;;;;;2.90;2.70;;;19.40;38.00;;;;;;5068260;28;20510;-60
2021/12/22 11:02:06;;;;;;;2.80;2.60;;;19.40;38.00;;;;;;5068603;28;20531;-61
2021/12/22 11:04:34;;;;;;;3.10;2.80;;;19.40;37.90;;;;;;5068070;28;20240;-64
2021/12/22 11:07:14;;;;;;;6.53;3.13;;;19.50;38.00;;;;;;5067715;28;20549;-61
2021/12/22 11:09:40;;;;;;;2.90;2.70;;;19.40;38.00;;;;;;5065585;28;20473;-60
2021/12/22 11:12:06;;;;;;;2.80;2.60;;;19.40;37.90;;;;;;5068028;28;20842;-60
2021/12/22 11:14:39;;;;;;;3.17;2.87;;;19.40;37.80;;;;;;5067951;28;20295;-60
2021/12/22 11:17:14;;;;;;;2.80;2.60;;;19.40;37.70;;;;;;5067067;28;20569;-60
2021/12/22 11:19:57;;;;;;;2.67;2.47;;;19.40;37.70;;;;;;5067333;28;20504;-60
2021/12/22 11:22:47;;;;;;;3.33;3.07;;;19.40;37.70;;;;;;5065735;28;20445;-59
2021/12/22 11:25:12;;;;;;;2.60;2.40;;;19.40;37.60;;;;;;5067443;28;20490;-60
2021/12/22 11:27:39;;;;;;;3.10;2.90;;;19.40;37.50;;;;;;5066773;28;20497;-60
2021/12/22 11:30:06;;;;;;;2.70;2.50;;;19.40;37.50;;;;;;5067982;28;20274;-60
2021/12/22 11:32:34;;;;;;;3.07;2.87;;;19.40;37.40;;;;;;5068035;28;20451;-62
2021/12/22 11:35:07;;;;;;;2.80;2.60;;;19.40;37.40;;;;;;5068248;28;20534;-59
2021/12/22 11:37:33;;;;;;;2.87;2.67;;;19.40;37.30;;;;;;5068274;28;20478;-60
2021/12/22 11:39:58;;;;;;;2.73;2.50;;;19.40;37.30;;;;;;5066347;28;21029;-59
2021/12/22 11:42:30;;;;;;;2.50;2.30;;;19.40;37.30;;;;;;5066748;28;20605;-62
2021/12/22 11:45:01;;;;;;;2.50;2.30;;;19.40;37.30;;;;;;5066996;28;20222;-60
2021/12/22 11:47:27;;;;;;;2.70;2.50;;;19.40;37.30;;;;;;5068788;28;20596;-60
2021/12/22 11:50:02;;;;;;;4.47;4.07;;;19.40;37.30;;;;;;5069124;28;20527;-61
2021/12/22 11:52:37;;;;;;;2.40;2.30;;;19.40;37.30;;;;;;5069021;28;20443;-60
2021/12/22 11:55:18;;;;;;;3.30;3.10;;;19.40;37.30;;;;;;5070962;28;20450;-66
2021/12/22 11:57:48;;;;;;;3.07;2.77;;;19.40;37.20;;;;;;5070326;28;20465;-59
2021/12/22 12:00:34;;;;;;;2.73;2.53;;;19.40;37.20;;;;;;5068447;28;20455;-62
2021/12/22 12:03:28;;;;;;;2.73;2.53;;;19.40;37.20;;;;;;5068406;28;20447;-60
2021/12/22 12:06:23;;;;;;;2.87;2.67;;;19.40;37.20;;;;;;5068468;28;20468;-60
2021/12/22 12:08:56;;;;;;;2.70;2.50;;;19.40;37.20;;;;;;5069068;28;20436;-60
2021/12/22 12:11:36;;;;;;;2.30;2.10;;;19.40;37.20;;;;;;5068168;28;20454;-60
2021/12/22 12:14:08;;;;;;;2.47;2.27;;;19.40;37.20;;;;;;5068984;28;20461;-60
2021/12/22 12:22:35;;;;;;;2.87;2.67;;;19.40;37.30;;;;;;5067740;28;21094;-60
2021/12/22 12:25:08;;;;;;;2.57;2.37;;;19.40;37.30;;;;;;5066858;28;20485;-61
2021/12/22 12:27:43;;;;;;;2.77;2.57;;;19.40;37.30;;;;;;5070786;28;20648;-60
2021/12/22 12:30:11;;;;;;;2.30;2.20;;;19.40;37.40;;;;;;5067962;28;21779;-67
2021/12/22 12:32:40;;;;;;;2.30;2.10;;;19.40;37.40;;;;;;5069103;28;20484;-61
2021/12/22 12:37:59;;;;;;;2.60;2.50;;;19.40;37.50;;;;;;5069886;28;20470;-61
2021/12/22 12:41:11;;;;;;;2.50;2.30;;;19.40;37.60;;;;;;5070130;28;20520;-65
2021/12/22 12:46:20;;;;;;;3.50;2.57;;;19.40;37.70;;;;;;5070859;28;20450;-61
2021/12/22 12:48:48;;;;;;;1.90;1.80;;;19.40;37.70;;;;;;5068247;28;20446;-60
2021/12/22 12:51:16;;;;;;;2.73;2.53;;;19.40;37.80;;;;;;5070434;28;20443;-60
2021/12/22 12:53:46;;;;;;;2.50;2.40;;;19.40;37.80;;;;;;5069358;28;20938;-60
2021/12/22 12:56:13;;;;;;;2.27;2.07;;;19.40;37.80;;;;;;5069201;28;20447;-61
2021/12/22 12:58:50;;;;;;;2.47;2.33;;;19.40;37.80;;;;;;5067620;28;20467;-61
2021/12/22 13:01:16;;;;;;;1.90;1.80;;;19.40;38.70;;;;;;5067612;28;20466;-61
2021/12/22 13:03:51;;;;;;;2.13;2.03;;;19.40;37.90;;;;;;5069245;28;20469;-61
2021/12/22 13:06:16;;;;;;;2.87;2.30;;;19.40;38.00;;;;;;5068404;28;20209;-60
2021/12/22 13:08:44;;;;;;;2.13;2.03;;;19.40;38.00;;;;;;5070981;28;20469;-61
2021/12/22 13:11:13;;;;;;;2.13;2.03;;;19.40;38.00;;;;;;5068243;28;20214;-60
2021/12/22 13:16:38;;;;;;;2.43;2.30;;;19.40;38.00;;;;;;5044015;28;20461;-62
2021/12/22 13:19:04;;;;;;;2.43;2.00;;;19.40;38.00;;;;;;5068757;28;22769;-60
2021/12/22 13:21:29;;;;;;;2.30;2.13;;;19.40;38.00;;;;;;5066233;28;20506;-60